sensor_id;sensor_type;location;lat;lon;timestamp;pressure;altitude;pressure_sealevel;temperature;humidity
17785;BME280;9016;53.582;10.062;2023-02-15T00:02:04;102994.81;;;7.17;96.61
17785;BME280;9016;53.582;10.062;2023-02-15T00:04:32;102991.25;;;7.18;96.67
17785;BME280;9016;53.582;10.062;2023-02-15T00:07:18;102988.59;;;7.18;96.22
17785;BME280;9016;53.582;10.062;2023-02-15T00:09:46;102990.34;;;7.22;96.58
17785;BME280;9016;53.582;10.062;2023-02-15T00:12:15;102983.31;;;7.18;96.83
17785;BME280;9016;53.582;10.062;2023-02-15T00:14:45;102980.78;;;7.07;96.57
17785;BME280;9016;53.582;10.062;2023-02-15T00:17:13;102981.59;;;7.15;96.89
17785;BME280;9016;53.582;10.062;2023-02-15T00:19:41;102981.56;;;7.17;97.02
17785;BME280;9016;53.582;10.062;2023-02-15T00:22:09;102982.41;;;7.20;96.88
17785;BME280;9016;53.582;10.062;2023-02-15T00:24:37;102969.94;;;7.28;96.39
17785;BME280;9016;53.582;10.062;2023-02-15T00:27:05;102979.63;;;7.34;95.84
17785;BME280;9016;53.582;10.062;2023-02-15T00:29:35;102966.38;;;7.32;96.00
17785;BME280;9016;53.582;10.062;2023-02-15T00:32:05;102968.97;;;7.35;95.64
17785;BME280;9016;53.582;10.062;2023-02-15T00:34:33;102966.25;;;7.40;95.51
17785;BME280;9016;53.582;10.062;2023-02-15T00:37:01;102964.56;;;7.36;95.72
17785;BME280;9016;53.582;10.062;2023-02-15T00:39:29;102961.81;;;7.45;95.42
17785;BME280;9016;53.582;10.062;2023-02-15T00:41:57;102959.25;;;7.36;95.50
17785;BME280;9016;53.582;10.062;2023-02-15T00:44:26;102961.88;;;7.39;95.58
17785;BME280;9016;53.582;10.062;2023-02-15T00:46:53;102951.28;;;7.37;95.88
17785;BME280;9016;53.582;10.062;2023-02-15T00:49:26;102951.19;;;7.45;95.57
17785;BME280;9016;53.582;10.062;2023-02-15T00:51:54;102949.50;;;7.36;95.58
17785;BME280;9016;53.582;10.062;2023-02-15T00:54:22;102942.38;;;7.43;96.11
17785;BME280;9016;53.582;10.062;2023-02-15T00:56:50;102953.88;;;7.40;95.39
17785;BME280;9016;53.582;10.062;2023-02-15T00:59:18;102955.66;;;7.38;95.19
17785;BME280;9016;53.582;10.062;2023-02-15T01:01:46;102947.75;;;7.37;95.24
17785;BME280;9016;53.582;10.062;2023-02-15T01:04:13;102947.75;;;7.37;95.57
17785;BME280;9016;53.582;10.062;2023-02-15T01:06:43;102945.94;;;7.40;95.72
17785;BME280;9016;53.582;10.062;2023-02-15T01:09:11;102951.19;;;7.45;95.01
17785;BME280;9016;53.582;10.062;2023-02-15T01:11:40;102946.78;;;7.42;95.17
17785;BME280;9016;53.582;10.062;2023-02-15T01:14:09;102941.47;;;7.42;95.08
17785;BME280;9016;53.582;10.062;2023-02-15T01:16:37;102945.91;;;7.42;95.35
17785;BME280;9016;53.582;10.062;2023-02-15T01:19:05;102945.78;;;7.51;94.96
17785;BME280;9016;53.582;10.062;2023-02-15T01:21:33;102942.25;;;7.52;94.56
17785;BME280;9016;53.582;10.062;2023-02-15T01:24:03;102937.84;;;7.49;95.83
17785;BME280;9016;53.582;10.062;2023-02-15T01:26:31;102925.50;;;7.48;95.67
17785;BME280;9016;53.582;10.062;2023-02-15T01:28:59;102925.50;;;7.48;95.17
17785;BME280;9016;53.582;10.062;2023-02-15T01:31:27;102916.69;;;7.46;94.57
17785;BME280;9016;53.582;10.062;2023-02-15T01:33:55;102920.28;;;7.41;94.34
17785;BME280;9016;53.582;10.062;2023-02-15T01:36:23;102916.75;;;7.40;95.22
17785;BME280;9016;53.582;10.062;2023-02-15T01:38:51;102917.63;;;7.41;94.59
17785;BME280;9016;53.582;10.062;2023-02-15T01:41:20;102912.34;;;7.41;93.71
17785;BME280;9016;53.582;10.062;2023-02-15T01:43:52;102915.00;;;7.39;93.79
17785;BME280;9016;53.582;10.062;2023-02-15T01:46:24;102905.25;;;7.43;93.67
17785;BME280;9016;53.582;10.062;2023-02-15T01:48:58;102908.69;;;7.48;93.11
17785;BME280;9016;53.582;10.062;2023-02-15T01:51:29;102910.59;;;7.38;93.75
17785;BME280;9016;53.582;10.062;2023-02-15T01:54:02;102904.50;;;7.32;94.42
17785;BME280;9016;53.582;10.062;2023-02-15T01:56:36;102912.47;;;7.30;94.19
17785;BME280;9016;53.582;10.062;2023-02-15T01:59:08;102905.38;;;7.32;94.70
17785;BME280;9016;53.582;10.062;2023-02-15T02:01:37;102912.44;;;7.32;94.40
17785;BME280;9016;53.582;10.062;2023-02-15T02:04:12;102897.31;;;7.38;94.69
17785;BME280;9016;53.582;10.062;2023-02-15T02:06:41;102891.19;;;7.35;94.73
17785;BME280;9016;53.582;10.062;2023-02-15T02:09:09;102886.69;;;7.41;94.66
17785;BME280;9016;53.582;10.062;2023-02-15T02:11:40;102883.16;;;7.41;94.50
17785;BME280;9016;53.582;10.062;2023-02-15T02:14:08;102888.59;;;7.32;94.95
17785;BME280;9016;53.582;10.062;2023-02-15T02:16:42;102885.03;;;7.31;95.61
17785;BME280;9016;53.582;10.062;2023-02-15T02:19:40;102884.09;;;7.37;95.50
17785;BME280;9016;53.582;10.062;2023-02-15T02:22:50;102872.44;;;7.48;94.90
17785;BME280;9016;53.582;10.062;2023-02-15T02:28:38;102871.75;;;7.36;95.23
17785;BME280;9016;53.582;10.062;2023-02-15T02:31:30;102860.16;;;7.40;95.50
17785;BME280;9016;53.582;10.062;2023-02-15T02:34:05;102851.28;;;7.44;94.87
17785;BME280;9016;53.582;10.062;2023-02-15T02:36:41;102851.28;;;7.44;94.66
17785;BME280;9016;53.582;10.062;2023-02-15T02:39:22;102853.19;;;7.36;94.43
17785;BME280;9016;53.582;10.062;2023-02-15T02:41:58;102857.59;;;7.35;95.18
17785;BME280;9016;53.582;10.062;2023-02-15T02:44:33;102848.75;;;7.35;94.58
17785;BME280;9016;53.582;10.062;2023-02-15T02:47:06;102849.69;;;7.32;93.52
17785;BME280;9016;53.582;10.062;2023-02-15T02:49:39;102847.13;;;7.25;94.44
17785;BME280;9016;53.582;10.062;2023-02-15T02:52:36;102840.09;;;7.22;94.11
17785;BME280;9016;53.582;10.062;2023-02-15T02:55:08;102841.78;;;7.28;94.78
17785;BME280;9016;53.582;10.062;2023-02-15T02:57:40;102850.66;;;7.27;95.23
17785;BME280;9016;53.582;10.062;2023-02-15T03:00:12;102840.13;;;7.19;95.08
17785;BME280;9016;53.582;10.062;2023-02-15T03:02:43;102838.44;;;7.14;94.77
17785;BME280;9016;53.582;10.062;2023-02-15T03:05:15;102839.25;;;7.19;94.93
17785;BME280;9016;53.582;10.062;2023-02-15T03:07:49;102833.94;;;7.19;95.19
17785;BME280;9016;53.582;10.062;2023-02-15T03:10:21;102827.75;;;7.18;95.79
17785;BME280;9016;53.582;10.062;2023-02-15T03:12:50;102821.66;;;7.13;95.36
17785;BME280;9016;53.582;10.062;2023-02-15T03:15:21;102817.31;;;7.06;95.20
17785;BME280;9016;53.582;10.062;2023-02-15T03:17:53;102821.69;;;7.10;95.09
17785;BME280;9016;53.582;10.062;2023-02-15T03:20:28;102818.03;;;7.19;95.33
17785;BME280;9016;53.582;10.062;2023-02-15T03:22:59;102818.13;;;7.11;94.98
17785;BME280;9016;53.582;10.062;2023-02-15T03:25:32;102820.75;;;7.13;94.67
17785;BME280;9016;53.582;10.062;2023-02-15T03:28:04;102819.16;;;6.99;94.43
17785;BME280;9016;53.582;10.062;2023-02-15T03:30:35;102813.84;;;7.03;94.66
17785;BME280;9016;53.582;10.062;2023-02-15T03:33:05;102811.16;;;7.04;94.48
17785;BME280;9016;53.582;10.062;2023-02-15T03:35:43;102810.31;;;7.00;94.64
17785;BME280;9016;53.582;10.062;2023-02-15T03:38:17;102812.97;;;7.02;94.18
17785;BME280;9016;53.582;10.062;2023-02-15T03:40:48;102809.41;;;7.01;94.17
17785;BME280;9016;53.582;10.062;2023-02-15T03:43:45;102804.94;;;7.05;94.43
17785;BME280;9016;53.582;10.062;2023-02-15T03:46:20;102806.75;;;7.01;94.15
17785;BME280;9016;53.582;10.062;2023-02-15T03:48:52;102798.78;;;7.05;94.97
17785;BME280;9016;53.582;10.062;2023-02-15T03:51:27;102798.78;;;7.03;94.42
17785;BME280;9016;53.582;10.062;2023-02-15T03:54:03;102792.59;;;7.04;94.43
17785;BME280;9016;53.582;10.062;2023-02-15T03:56:34;102793.50;;;7.01;93.87
17785;BME280;9016;53.582;10.062;2023-02-15T03:59:03;102791.78;;;7.00;94.42
17785;BME280;9016;53.582;10.062;2023-02-15T04:01:58;102802.41;;;6.96;94.45
17785;BME280;9016;53.582;10.062;2023-02-15T04:04:33;102793.69;;;6.86;94.01
17785;BME280;9016;53.582;10.062;2023-02-15T04:07:05;102791.06;;;6.85;94.63
17785;BME280;9016;53.582;10.062;2023-02-15T04:09:33;102793.66;;;6.91;94.41
17785;BME280;9016;53.582;10.062;2023-02-15T04:12:18;102792.75;;;6.92;94.85
17785;BME280;9016;53.582;10.062;2023-02-15T04:14:46;102783.94;;;6.90;94.57
17785;BME280;9016;53.582;10.062;2023-02-15T04:17:31;102782.25;;;6.83;94.39
17785;BME280;9016;53.582;10.062;2023-02-15T04:19:59;102781.34;;;6.87;94.58
17785;BME280;9016;53.582;10.062;2023-02-15T04:22:46;102775.19;;;6.83;94.54
17785;BME280;9016;53.582;10.062;2023-02-15T04:25:32;102775.25;;;6.77;94.55
17785;BME280;9016;53.582;10.062;2023-02-15T04:27:59;102783.09;;;6.86;94.78
17785;BME280;9016;53.582;10.062;2023-02-15T04:30:27;102779.59;;;6.84;94.68
17785;BME280;9016;53.582;10.062;2023-02-15T04:32:56;102777.78;;;6.89;94.87
17785;BME280;9016;53.582;10.062;2023-02-15T04:35:24;102771.63;;;6.87;94.29
17785;BME280;9016;53.582;10.062;2023-02-15T04:37:53;102779.66;;;6.80;95.12
17785;BME280;9016;53.582;10.062;2023-02-15T04:40:22;102772.63;;;6.77;94.31
17785;BME280;9016;53.582;10.062;2023-02-15T04:42:50;102773.53;;;6.73;94.31
17785;BME280;9016;53.582;10.062;2023-02-15T04:45:18;102767.41;;;6.73;93.92
17785;BME280;9016;53.582;10.062;2023-02-15T04:47:46;102766.56;;;6.66;93.86
17785;BME280;9016;53.582;10.062;2023-02-15T04:50:14;102762.19;;;6.62;94.41
17785;BME280;9016;53.582;10.062;2023-02-15T04:52:42;102767.59;;;6.56;94.16
17785;BME280;9016;53.582;10.062;2023-02-15T04:55:12;102755.19;;;6.60;94.23
17785;BME280;9016;53.582;10.062;2023-02-15T04:57:40;102761.31;;;6.63;94.32
17785;BME280;9016;53.582;10.062;2023-02-15T05:00:09;102751.66;;;6.59;93.54
17785;BME280;9016;53.582;10.062;2023-02-15T05:02:37;102757.91;;;6.54;93.86
17785;BME280;9016;53.582;10.062;2023-02-15T05:05:06;102749.03;;;6.58;94.20
17785;BME280;9016;53.582;10.062;2023-02-15T05:07:36;102747.31;;;6.54;94.08
17785;BME280;9016;53.582;10.062;2023-02-15T05:10:04;102749.94;;;6.55;93.78
17785;BME280;9016;53.582;10.062;2023-02-15T05:12:34;102753.50;;;6.51;93.98
17785;BME280;9016;53.582;10.062;2023-02-15T05:15:02;102747.38;;;6.46;93.95
17785;BME280;9016;53.582;10.062;2023-02-15T05:17:30;102740.25;;;6.51;93.98
17785;BME280;9016;53.582;10.062;2023-02-15T05:19:58;102740.28;;;6.50;93.68
17785;BME280;9016;53.582;10.062;2023-02-15T05:22:26;102743.00;;;6.42;93.30
17785;BME280;9016;53.582;10.062;2023-02-15T05:24:54;102743.91;;;6.41;93.45
17785;BME280;9016;53.582;10.062;2023-02-15T05:27:41;102744.84;;;6.37;93.83
17785;BME280;9016;53.582;10.062;2023-02-15T05:30:28;102739.63;;;6.30;93.75
17785;BME280;9016;53.582;10.062;2023-02-15T05:32:56;102737.94;;;6.24;93.92
17785;BME280;9016;53.582;10.062;2023-02-15T05:35:24;102738.75;;;6.28;94.26
17785;BME280;9016;53.582;10.062;2023-02-15T05:37:52;102740.53;;;6.27;93.89
17785;BME280;9016;53.582;10.062;2023-02-15T05:40:20;102739.72;;;6.21;93.87
17785;BME280;9016;53.582;10.062;2023-02-15T05:42:49;102737.06;;;6.22;93.71
17785;BME280;9016;53.582;10.062;2023-02-15T05:45:17;102730.09;;;6.14;93.97
17785;BME280;9016;53.582;10.062;2023-02-15T05:47:46;102730.94;;;6.19;94.32
17785;BME280;9016;53.582;10.062;2023-02-15T05:50:14;102727.41;;;6.20;93.58
17785;BME280;9016;53.582;10.062;2023-02-15T05:52:42;102718.66;;;6.12;93.84
17785;BME280;9016;53.582;10.062;2023-02-15T05:55:10;102712.47;;;6.11;94.44
17785;BME280;9016;53.582;10.062;2023-02-15T05:57:37;102713.31;;;6.18;94.44
17785;BME280;9016;53.582;10.062;2023-02-15T06:00:08;102721.25;;;6.18;93.58
17785;BME280;9016;53.582;10.062;2023-02-15T06:02:37;102723.94;;;6.12;93.30
17785;BME280;9016;53.582;10.062;2023-02-15T06:05:06;102716.06;;;6.09;92.95
17785;BME280;9016;53.582;10.062;2023-02-15T06:07:34;102726.63;;;6.09;93.58
17785;BME280;9016;53.582;10.062;2023-02-15T06:10:02;102727.47;;;6.14;93.44
17785;BME280;9016;53.582;10.062;2023-02-15T06:12:31;102717.75;;;6.13;92.82
17785;BME280;9016;53.582;10.062;2023-02-15T06:14:59;102717.72;;;6.17;93.30
17785;BME280;9016;53.582;10.062;2023-02-15T06:17:29;102717.75;;;6.11;92.43
17785;BME280;9016;53.582;10.062;2023-02-15T06:19:57;102723.97;;;6.10;92.63
17785;BME280;9016;53.582;10.062;2023-02-15T06:22:25;102720.31;;;6.20;92.88
17785;BME280;9016;53.582;10.062;2023-02-15T06:24:53;102726.56;;;6.13;91.98
17785;BME280;9016;53.582;10.062;2023-02-15T06:27:21;102730.16;;;6.08;92.05
17785;BME280;9016;53.582;10.062;2023-02-15T06:29:49;102734.59;;;6.06;92.80
17785;BME280;9016;53.582;10.062;2023-02-15T06:32:17;102732.81;;;6.06;92.92
17785;BME280;9016;53.582;10.062;2023-02-15T06:34:47;102730.09;;;6.15;93.11
17785;BME280;9016;53.582;10.062;2023-02-15T06:37:15;102743.28;;;6.20;92.56
17785;BME280;9016;53.582;10.062;2023-02-15T06:39:43;102742.53;;;6.04;92.15
17785;BME280;9016;53.582;10.062;2023-02-15T06:42:11;102744.31;;;6.03;93.17
17785;BME280;9016;53.582;10.062;2023-02-15T06:44:39;102738.94;;;6.11;93.15
17785;BME280;9016;53.582;10.062;2023-02-15T06:47:07;102737.19;;;6.10;92.55
17785;BME280;9016;53.582;10.062;2023-02-15T06:49:35;102738.94;;;6.11;92.43
17785;BME280;9016;53.582;10.062;2023-02-15T06:52:04;102736.38;;;6.02;92.67
17785;BME280;9016;53.582;10.062;2023-02-15T06:54:32;102734.66;;;6.01;92.95
17785;BME280;9016;53.582;10.062;2023-02-15T06:57:00;102728.34;;;6.13;92.62
17785;BME280;9016;53.582;10.062;2023-02-15T06:59:28;102725.59;;;6.23;92.07
17785;BME280;9016;53.582;10.062;2023-02-15T07:01:56;102725.69;;;6.14;91.60
17785;BME280;9016;53.582;10.062;2023-02-15T07:04:24;102721.50;;;5.90;91.77
17785;BME280;9016;53.582;10.062;2023-02-15T07:06:52;102717.09;;;5.91;92.19
17785;BME280;9016;53.582;10.062;2023-02-15T07:09:21;102710.91;;;5.93;92.02
17785;BME280;9016;53.582;10.062;2023-02-15T07:11:49;102710.97;;;5.87;91.98
17785;BME280;9016;53.582;10.062;2023-02-15T07:14:34;102718.00;;;5.87;92.13
17785;BME280;9016;53.582;10.062;2023-02-15T07:17:02;102717.91;;;5.96;92.51
17785;BME280;9016;53.582;10.062;2023-02-15T07:19:34;102718.78;;;5.98;92.78
17785;BME280;9016;53.582;10.062;2023-02-15T07:22:02;102717.06;;;5.94;91.86
17785;BME280;9016;53.582;10.062;2023-02-15T07:24:32;102710.88;;;5.95;92.08
17785;BME280;9016;53.582;10.062;2023-02-15T07:27:00;102710.81;;;5.99;92.27
17785;BME280;9016;53.582;10.062;2023-02-15T07:29:30;102704.59;;;6.08;92.61
17785;BME280;9016;53.582;10.062;2023-02-15T07:31:58;102709.00;;;6.06;91.61
17785;BME280;9016;53.582;10.062;2023-02-15T07:34:25;102702.78;;;6.12;91.85
17785;BME280;9016;53.582;10.062;2023-02-15T07:36:54;102696.66;;;6.05;91.07
17785;BME280;9016;53.582;10.062;2023-02-15T07:39:22;102695.84;;;5.98;91.29
17785;BME280;9016;53.582;10.062;2023-02-15T07:41:51;102702.88;;;6.03;91.56
17785;BME280;9016;53.582;10.062;2023-02-15T07:44:19;102692.38;;;5.95;91.01
17785;BME280;9016;53.582;10.062;2023-02-15T07:46:47;102689.75;;;5.93;91.29
17785;BME280;9016;53.582;10.062;2023-02-15T07:49:15;102682.66;;;5.94;91.32
17785;BME280;9016;53.582;10.062;2023-02-15T07:51:43;102686.16;;;5.99;90.43
17785;BME280;9016;53.582;10.062;2023-02-15T07:54:15;102689.72;;;5.95;90.25
17785;BME280;9016;53.582;10.062;2023-02-15T07:56:43;102686.19;;;5.97;91.03
17785;BME280;9016;53.582;10.062;2023-02-15T07:59:12;102684.47;;;5.89;90.53
17785;BME280;9016;53.582;10.062;2023-02-15T08:01:40;102684.34;;;6.03;91.12
17785;BME280;9016;53.582;10.062;2023-02-15T08:04:08;102685.41;;;5.83;90.24
17785;BME280;9016;53.582;10.062;2023-02-15T08:06:38;102690.72;;;5.83;90.47
17785;BME280;9016;53.582;10.062;2023-02-15T08:09:07;102686.28;;;5.85;89.95
17785;BME280;9016;53.582;10.062;2023-02-15T08:11:38;102682.69;;;5.92;90.53
17785;BME280;9016;53.582;10.062;2023-02-15T08:14:08;102673.84;;;5.95;90.50
17785;BME280;9016;53.582;10.062;2023-02-15T08:16:39;102675.72;;;5.84;89.66
17785;BME280;9016;53.582;10.062;2023-02-15T08:19:09;102678.31;;;5.88;90.40
17785;BME280;9016;53.582;10.062;2023-02-15T08:21:39;102668.72;;;5.77;90.05
17785;BME280;9016;53.582;10.062;2023-02-15T08:24:09;102666.94;;;5.79;90.10
17785;BME280;9016;53.582;10.062;2023-02-15T08:26:38;102668.75;;;5.71;90.18
17785;BME280;9016;53.582;10.062;2023-02-15T08:29:09;102668.81;;;5.65;90.42
17785;BME280;9016;53.582;10.062;2023-02-15T08:31:39;102670.50;;;5.75;90.13
17785;BME280;9016;53.582;10.062;2023-02-15T08:38:10;102671.50;;;5.60;89.25
17785;BME280;9016;53.582;10.062;2023-02-15T08:40:38;102675.88;;;5.63;89.94
17785;BME280;9016;53.582;10.062;2023-02-15T08:43:06;102677.69;;;5.59;90.30
17785;BME280;9016;53.582;10.062;2023-02-15T08:45:35;102674.06;;;5.71;91.07
17785;BME280;9016;53.582;10.062;2023-02-15T08:48:05;102674.91;;;5.74;90.48
17785;BME280;9016;53.582;10.062;2023-02-15T08:50:33;102669.53;;;5.82;89.88
17785;BME280;9016;53.582;10.062;2023-02-15T08:53:06;102666.94;;;5.76;89.64
17785;BME280;9016;53.582;10.062;2023-02-15T08:55:34;102666.03;;;5.84;89.74
17785;BME280;9016;53.582;10.062;2023-02-15T08:58:02;102658.06;;;5.81;90.31
17785;BME280;9016;53.582;10.062;2023-02-15T09:00:30;102659.84;;;5.81;89.09
17785;BME280;9016;53.582;10.062;2023-02-15T09:02:58;102662.50;;;5.81;88.81
17785;BME280;9016;53.582;10.062;2023-02-15T09:05:27;102656.28;;;5.85;89.39
17785;BME280;9016;53.582;10.062;2023-02-15T09:07:58;102665.13;;;5.82;88.69
17785;BME280;9016;53.582;10.062;2023-02-15T09:10:26;102663.34;;;5.87;88.64
17785;BME280;9016;53.582;10.062;2023-02-15T09:12:54;102666.78;;;5.95;88.33
17785;BME280;9016;53.582;10.062;2023-02-15T09:15:22;102661.38;;;6.06;89.02
17785;BME280;9016;53.582;10.062;2023-02-15T09:17:50;102657.81;;;6.10;87.91
17785;BME280;9016;53.582;10.062;2023-02-15T09:20:18;102655.25;;;5.99;87.16
17785;BME280;9016;53.582;10.062;2023-02-15T09:22:47;102648.97;;;6.10;88.03
17785;BME280;9016;53.582;10.062;2023-02-15T09:25:15;102647.22;;;6.10;87.44
17785;BME280;9016;53.582;10.062;2023-02-15T09:27:43;102649.00;;;6.08;87.73
17785;BME280;9016;53.582;10.062;2023-02-15T09:30:18;102646.34;;;6.08;86.81
17785;BME280;9016;53.582;10.062;2023-02-15T09:32:47;102640.13;;;6.14;86.79
17785;BME280;9016;53.582;10.062;2023-02-15T09:35:15;102638.31;;;6.17;86.62
17785;BME280;9016;53.582;10.062;2023-02-15T09:37:43;102635.59;;;6.22;86.11
17785;BME280;9016;53.582;10.062;2023-02-15T09:40:15;102640.88;;;6.23;86.07
17785;BME280;9016;53.582;10.062;2023-02-15T09:43:05;102630.19;;;6.29;85.90
17785;BME280;9016;53.582;10.062;2023-02-15T09:45:50;102639.81;;;6.38;85.24
17785;BME280;9016;53.582;10.062;2023-02-15T09:48:38;102645.00;;;6.47;84.70
17785;BME280;9016;53.582;10.062;2023-02-15T09:51:22;102639.63;;;6.53;84.39
17785;BME280;9016;53.582;10.062;2023-02-15T09:54:06;102641.31;;;6.57;84.60
17785;BME280;9016;53.582;10.062;2023-02-15T09:56:43;102634.91;;;6.74;84.94
17785;BME280;9016;53.582;10.062;2023-02-15T09:59:24;102637.59;;;6.70;84.60
17785;BME280;9016;53.582;10.062;2023-02-15T10:02:06;102637.56;;;6.73;85.23
17785;BME280;9016;53.582;10.062;2023-02-15T10:04:48;102639.38;;;6.68;84.59
17785;BME280;9016;53.582;10.062;2023-02-15T10:07:35;102642.75;;;6.82;84.24
17785;BME280;9016;53.582;10.062;2023-02-15T10:10:16;102638.28;;;6.82;84.14
17785;BME280;9016;53.582;10.062;2023-02-15T10:13:05;102647.13;;;6.83;83.69
17785;BME280;9016;53.582;10.062;2023-02-15T10:15:47;102641.06;;;6.73;83.99
17785;BME280;9016;53.582;10.062;2023-02-15T10:18:31;102647.38;;;6.66;84.64
17785;BME280;9016;53.582;10.062;2023-02-15T10:21:07;102644.78;;;6.60;85.42
17785;BME280;9016;53.582;10.062;2023-02-15T10:23:53;102642.06;;;6.66;85.64
17785;BME280;9016;53.582;10.062;2023-02-15T10:26:35;102645.38;;;6.82;84.76
17785;BME280;9016;53.582;10.062;2023-02-15T10:29:09;102644.47;;;6.83;84.42
17785;BME280;9016;53.582;10.062;2023-02-15T10:31:47;102642.75;;;6.79;84.13
17785;BME280;9016;53.582;10.062;2023-02-15T10:34:17;102651.56;;;6.81;84.85
17785;BME280;9016;53.582;10.062;2023-02-15T10:37:08;102646.91;;;6.98;83.95
17785;BME280;9016;53.582;10.062;2023-02-15T10:39:50;102651.91;;;7.16;82.61
17785;BME280;9016;53.582;10.062;2023-02-15T10:42:28;102652.81;;;7.17;82.29
17785;BME280;9016;53.582;10.062;2023-02-15T10:45:12;102653.81;;;7.07;81.82
17785;BME280;9016;53.582;10.062;2023-02-15T10:47:54;102648.25;;;7.25;82.48
17785;BME280;9016;53.582;10.062;2023-02-15T10:50:35;102644.44;;;7.41;80.53
17785;BME280;9016;53.582;10.062;2023-02-15T10:53:28;102640.22;;;7.29;80.78
17785;BME280;9016;53.582;10.062;2023-02-15T10:56:05;102636.78;;;7.24;78.67
17785;BME280;9016;53.582;10.062;2023-02-15T10:58:50;102636.63;;;7.33;81.21
17785;BME280;9016;53.582;10.062;2023-02-15T11:01:27;102631.06;;;7.48;79.91
17785;BME280;9016;53.582;10.062;2023-02-15T11:04:29;102620.59;;;7.41;79.54
17785;BME280;9016;53.582;10.062;2023-02-15T11:07:05;102621.16;;;7.56;80.63
17785;BME280;9016;53.582;10.062;2023-02-15T11:09:41;102622.09;;;7.55;79.33
17785;BME280;9016;53.582;10.062;2023-02-15T11:12:13;102621.03;;;7.65;79.11
17785;BME280;9016;53.582;10.062;2023-02-15T11:14:47;102615.03;;;7.53;78.54
17785;BME280;9016;53.582;10.062;2023-02-15T11:17:21;102616.81;;;7.54;79.63
17785;BME280;9016;53.582;10.062;2023-02-15T11:19:56;102613.97;;;7.64;78.59
17785;BME280;9016;53.582;10.062;2023-02-15T11:22:30;102605.13;;;7.64;78.10
17785;BME280;9016;53.582;10.062;2023-02-15T11:25:01;102611.41;;;7.58;78.88
17785;BME280;9016;53.582;10.062;2023-02-15T11:27:31;102607.66;;;7.70;79.52
17785;BME280;9016;53.582;10.062;2023-02-15T11:30:03;102617.22;;;7.78;78.09
17785;BME280;9016;53.582;10.062;2023-02-15T11:32:39;102604.72;;;7.85;77.94
17785;BME280;9016;53.582;10.062;2023-02-15T11:35:20;102608.09;;;7.94;78.23
17785;BME280;9016;53.582;10.062;2023-02-15T11:37:54;102612.44;;;7.97;78.05
17785;BME280;9016;53.582;10.062;2023-02-15T11:40:25;102599.38;;;7.86;78.39
17785;BME280;9016;53.582;10.062;2023-02-15T11:42:56;102590.94;;;8.11;77.80
17785;BME280;9016;53.582;10.062;2023-02-15T11:45:27;102585.59;;;8.12;77.01
17785;BME280;9016;53.582;10.062;2023-02-15T11:47:58;102595.44;;;8.07;77.60
17785;BME280;9016;53.582;10.062;2023-02-15T11:50:28;102576.59;;;7.75;78.58
17785;BME280;9016;53.582;10.062;2023-02-15T11:52:59;102572.16;;;7.77;78.53
17785;BME280;9016;53.582;10.062;2023-02-15T11:55:29;102558.69;;;7.86;78.41
17785;BME280;9016;53.582;10.062;2023-02-15T11:58:02;102556.03;;;7.86;78.58
17785;BME280;9016;53.582;10.062;2023-02-15T12:00:34;102551.53;;;7.91;79.04
17785;BME280;9016;53.582;10.062;2023-02-15T12:03:21;102560.34;;;7.93;78.77
17785;BME280;9016;53.582;10.062;2023-02-15T12:05:56;102555.25;;;7.81;77.87
17785;BME280;9016;53.582;10.062;2023-02-15T12:08:32;102555.34;;;7.78;79.38
17785;BME280;9016;53.582;10.062;2023-02-15T12:11:06;102552.41;;;7.90;79.51
17785;BME280;9016;53.582;10.062;2023-02-15T12:13:53;102541.75;;;7.93;77.66
17785;BME280;9016;53.582;10.062;2023-02-15T12:16:22;102533.81;;;7.91;77.38
17785;BME280;9016;53.582;10.062;2023-02-15T12:18:52;102532.19;;;7.84;77.76
17785;BME280;9016;53.582;10.062;2023-02-15T12:21:29;102535.72;;;7.85;79.44
17785;BME280;9016;53.582;10.062;2023-02-15T12:24:03;102529.50;;;7.86;79.81
17785;BME280;9016;53.582;10.062;2023-02-15T12:26:33;102525.72;;;7.97;78.75
17785;BME280;9016;53.582;10.062;2023-02-15T12:29:07;102522.06;;;8.03;78.33
17785;BME280;9016;53.582;10.062;2023-02-15T12:31:43;102519.16;;;8.14;78.22
17785;BME280;9016;53.582;10.062;2023-02-15T12:34:18;102529.97;;;8.04;78.17
17785;BME280;9016;53.582;10.062;2023-02-15T12:36:51;102519.19;;;8.12;77.78
17785;BME280;9016;53.582;10.062;2023-02-15T12:39:25;102519.28;;;8.09;78.55
17785;BME280;9016;53.582;10.062;2023-02-15T12:42:00;102517.97;;;8.28;78.95
17785;BME280;9016;53.582;10.062;2023-02-15T12:44:30;102511.03;;;8.24;78.92
17785;BME280;9016;53.582;10.062;2023-02-15T12:47:01;102509.78;;;8.39;77.96
17785;BME280;9016;53.582;10.062;2023-02-15T12:49:32;102498.25;;;8.40;77.66
17785;BME280;9016;53.582;10.062;2023-02-15T12:52:02;102493.69;;;8.45;78.23
17785;BME280;9016;53.582;10.062;2023-02-15T12:54:34;102496.34;;;8.45;78.79
17785;BME280;9016;53.582;10.062;2023-02-15T12:57:22;102490.56;;;8.28;79.06
17785;BME280;9016;53.582;10.062;2023-02-15T12:59:53;102484.25;;;8.33;78.23
17785;BME280;9016;53.582;10.062;2023-02-15T13:02:25;102481.31;;;8.44;79.06
17785;BME280;9016;53.582;10.062;2023-02-15T13:04:57;102483.00;;;8.48;78.30
17785;BME280;9016;53.582;10.062;2023-02-15T13:07:31;102475.66;;;8.59;78.43
17785;BME280;9016;53.582;10.062;2023-02-15T13:10:00;102478.03;;;8.69;78.45
17785;BME280;9016;53.582;10.062;2023-02-15T13:12:30;102478.66;;;8.80;77.86
17785;BME280;9016;53.582;10.062;2023-02-15T13:15:00;102474.06;;;8.85;77.43
17785;BME280;9016;53.582;10.062;2023-02-15T13:17:32;102477.13;;;9.06;76.83
17785;BME280;9016;53.582;10.062;2023-02-15T13:20:05;102463.72;;;9.09;76.30
17785;BME280;9016;53.582;10.062;2023-02-15T13:22:39;102464.63;;;9.08;76.75
17785;BME280;9016;53.582;10.062;2023-02-15T13:25:13;102455.38;;;9.22;76.25
17785;BME280;9016;53.582;10.062;2023-02-15T13:27:43;102453.94;;;9.41;75.45
17785;BME280;9016;53.582;10.062;2023-02-15T13:30:23;102459.63;;;9.60;74.96
17785;BME280;9016;53.582;10.062;2023-02-15T13:32:55;102453.47;;;9.58;75.46
17785;BME280;9016;53.582;10.062;2023-02-15T13:35:31;102453.19;;;9.67;75.19